Time;durP1;ratioP1;P1;durP2;ratioP2;P2;SDS_P1;SDS_P2;PMS_P1;PMS_P2;Temp;Humidity;BMP_temperature;BMP_pressure;BME280_temperature;BME280_humidity;BME280_pressure;Samples;Min_cycle;Max_cycle;Signal;HPM_P1;HPM_P2
2021/06/02 00:01:40;;;;;;;6.57;3.30;;;19.00;67.80;;;;;;5085201;28;20059;-66
2021/06/02 00:04:07;;;;;;;6.35;3.15;;;18.80;68.00;;;;;;5094210;28;20660;-65
2021/06/02 00:06:35;;;;;;;7.55;3.78;;;19.00;68.00;;;;;;5092715;28;20024;-65
2021/06/02 00:09:01;;;;;;;6.05;3.33;;;19.00;68.00;;;;;;5092443;28;20046;-66
2021/06/02 00:11:27;;;;;;;8.50;3.95;;;18.90;68.10;;;;;;5092945;28;20062;-65
2021/06/02 00:13:54;;;;;;;6.97;3.28;;;18.90;67.90;;;;;;5093465;28;20055;-66
2021/06/02 00:16:20;;;;;;;6.15;3.47;;;18.90;68.00;;;;;;5092451;28;20501;-67
2021/06/02 00:18:46;;;;;;;7.05;3.55;;;18.90;68.00;;;;;;5076815;28;20035;-66
2021/06/02 00:21:11;;;;;;;5.70;3.20;;;18.90;68.30;;;;;;5078012;28;20016;-66
2021/06/02 00:23:37;;;;;;;6.55;3.10;;;18.90;68.40;;;;;;5092488;28;20461;-67
2021/06/02 00:26:06;;;;;;;7.53;3.67;;;18.90;68.40;;;;;;5081902;28;20108;-67
2021/06/02 00:28:32;;;;;;;6.43;3.50;;;18.90;68.50;;;;;;5078214;28;20485;-65
2021/06/02 00:30:59;;;;;;;6.90;3.10;;;18.80;68.60;;;;;;5075830;28;20020;-66
2021/06/02 00:33:25;;;;;;;5.70;2.92;;;18.80;68.80;;;;;;5093802;28;20023;-65
2021/06/02 00:35:52;;;;;;;7.40;3.33;;;18.80;68.90;;;;;;5091115;28;20143;-65
2021/06/02 00:38:18;;;;;;;5.25;3.05;;;18.80;69.00;;;;;;5091357;28;20062;-67
2021/06/02 00:40:47;;;;;;;6.07;2.83;;;18.80;69.00;;;;;;5072206;28;20021;-66
2021/06/02 00:43:16;;;;;;;6.70;3.33;;;18.80;69.10;;;;;;5073479;28;20020;-66
2021/06/02 00:45:48;;;;;;;5.78;3.17;;;18.80;69.50;;;;;;5074216;28;20020;-65
2021/06/02 00:48:17;;;;;;;5.65;3.05;;;18.70;69.40;;;;;;5074340;28;20023;-65
2021/06/02 00:50:52;;;;;;;6.55;3.50;;;18.80;69.60;;;;;;5079604;28;20485;-65
2021/06/02 00:53:20;;;;;;;6.35;3.22;;;18.80;69.60;;;;;;5093456;28;20054;-66
2021/06/02 00:55:45;;;;;;;5.45;3.13;;;18.80;69.70;;;;;;5091413;28;20032;-66
2021/06/02 00:58:34;;;;;;;6.47;3.10;;;18.70;69.50;;;;;;5090142;28;20472;-66
2021/06/02 01:00:59;;;;;;;6.13;2.97;;;18.70;69.60;;;;;;5079435;28;20039;-66
2021/06/02 01:03:28;;;;;;;6.50;3.45;;;18.70;69.70;;;;;;5091804;28;20020;-66
2021/06/02 01:05:55;;;;;;;6.60;3.72;;;18.70;69.90;;;;;;5091245;28;20020;-66
2021/06/02 01:08:22;;;;;;;5.78;3.08;;;18.70;69.90;;;;;;5073206;28;20032;-65
2021/06/02 01:10:51;;;;;;;6.15;3.25;;;18.70;69.90;;;;;;5071602;28;20111;-67
2021/06/02 01:13:19;;;;;;;7.35;3.20;;;18.70;69.80;;;;;;5078673;28;20089;-65
2021/06/02 01:15:51;;;;;;;7.13;2.88;;;18.70;69.80;;;;;;5091524;28;20480;-66
2021/06/02 01:18:18;;;;;;;6.55;3.25;;;18.70;69.80;;;;;;5090732;28;20115;-65
2021/06/02 01:20:44;;;;;;;7.05;3.55;;;18.70;69.90;;;;;;5075422;28;20081;-66
2021/06/02 01:23:12;;;;;;;8.70;3.08;;;18.70;70.10;;;;;;5072803;28;20024;-66
2021/06/02 01:25:40;;;;;;;7.22;3.22;;;18.70;70.10;;;;;;5072399;28;20537;-67
2021/06/02 01:28:05;;;;;;;5.80;3.10;;;18.60;69.90;;;;;;5086880;28;20074;-66
2021/06/02 01:30:32;;;;;;;5.93;3.08;;;18.70;70.00;;;;;;5073482;28;20032;-66
2021/06/02 01:33:03;;;;;;;5.75;3.15;;;18.60;70.00;;;;;;5085381;28;20465;-66
2021/06/02 01:35:58;;;;;;;7.63;3.28;;;18.60;69.90;;;;;;5092405;28;20028;-65
2021/06/02 01:39:01;;;;;;;7.00;3.38;;;18.60;70.00;;;;;;5090604;28;20436;-66
2021/06/02 01:41:28;;;;;;;6.40;3.10;;;18.60;70.00;;;;;;5077803;28;20569;-66
2021/06/02 01:44:32;;;;;;;6.93;3.28;;;18.70;70.00;;;;;;5091131;28;20492;-66
2021/06/02 01:46:57;;;;;;;6.53;3.10;;;18.60;69.90;;;;;;5072021;28;20028;-66
2021/06/02 01:49:50;;;;;;;6.00;3.15;;;18.60;70.20;;;;;;5073792;28;20032;-65
2021/06/02 01:52:40;;;;;;;7.13;3.45;;;18.60;70.00;;;;;;5085792;28;20023;-66
2021/06/02 01:55:39;;;;;;;6.25;3.10;;;18.60;70.00;;;;;;5081920;28;20016;-65
2021/06/02 01:58:10;;;;;;;5.95;3.15;;;18.60;70.00;;;;;;5073109;28;20017;-66
2021/06/02 02:00:43;;;;;;;6.18;3.33;;;18.60;70.30;;;;;;5085217;28;20036;-66
2021/06/02 02:03:35;;;;;;;7.28;3.10;;;18.60;70.10;;;;;;5072119;28;20071;-66
2021/06/02 02:06:14;;;;;;;6.22;2.95;;;18.60;70.20;;;;;;5071570;28;20032;-65
2021/06/02 02:08:47;;;;;;;5.80;3.13;;;18.60;70.10;;;;;;5070390;28;20448;-65
2021/06/02 02:11:41;;;;;;;7.82;3.10;;;18.60;70.10;;;;;;5086528;28;20030;-66
2021/06/02 02:14:51;;;;;;;7.60;3.30;;;18.60;70.10;;;;;;5084191;28;20479;-65
2021/06/02 02:17:55;;;;;;;5.80;3.15;;;18.60;70.10;;;;;;5087527;28;20028;-65
2021/06/02 02:20:30;;;;;;;6.53;3.25;;;18.60;70.20;;;;;;5083930;28;20504;-65
2021/06/02 02:23:08;;;;;;;5.57;3.17;;;18.60;70.20;;;;;;5088982;28;20035;-65
2021/06/02 02:25:56;;;;;;;5.72;3.30;;;18.60;70.30;;;;;;5090183;28;20123;-66
2021/06/02 02:28:37;;;;;;;5.88;3.10;;;18.50;70.20;;;;;;5083537;28;20028;-67
2021/06/02 02:31:16;;;;;;;5.53;3.17;;;18.60;70.30;;;;;;5090816;28;20031;-65
2021/06/02 02:34:04;;;;;;;6.88;3.00;;;18.60;70.20;;;;;;5090199;28;20386;-67
2021/06/02 02:36:39;;;;;;;5.60;2.90;;;18.60;70.20;;;;;;5091403;28;20028;-66
2021/06/02 02:39:13;;;;;;;5.65;2.90;;;18.60;70.30;;;;;;5086025;28;20097;-66
2021/06/02 02:42:07;;;;;;;6.38;3.30;;;18.60;70.40;;;;;;5090472;28;20024;-66
2021/06/02 02:45:01;;;;;;;5.97;3.03;;;18.50;70.30;;;;;;5091174;28;20047;-65
2021/06/02 02:47:30;;;;;;;5.57;3.05;;;18.60;70.30;;;;;;5085808;28;20103;-66
2021/06/02 02:50:24;;;;;;;5.65;3.13;;;18.60;70.30;;;;;;5090146;28;20077;-65
2021/06/02 02:53:16;;;;;;;6.85;3.15;;;18.60;70.40;;;;;;5090010;28;20517;-65
2021/06/02 02:55:45;;;;;;;5.78;2.90;;;18.60;70.30;;;;;;5081900;28;20040;-66
2021/06/02 02:58:26;;;;;;;6.13;3.08;;;18.50;70.30;;;;;;5080488;28;20032;-66
2021/06/02 03:01:02;;;;;;;5.63;2.95;;;18.60;70.30;;;;;;5084544;28;20493;-66
2021/06/02 03:03:42;;;;;;;5.28;3.25;;;18.50;70.40;;;;;;5069800;28;20098;-64
2021/06/02 03:06:12;;;;;;;5.93;3.00;;;18.50;70.40;;;;;;5089245;28;20024;-65
2021/06/02 03:08:59;;;;;;;6.18;3.00;;;18.50;70.30;;;;;;5087416;28;20021;-66
2021/06/02 03:11:40;;;;;;;6.28;3.08;;;18.50;70.40;;;;;;5071323;28;20032;-65
2021/06/02 03:14:33;;;;;;;6.13;3.03;;;18.50;70.50;;;;;;5070557;28;20021;-65
2021/06/02 03:17:05;;;;;;;5.22;3.05;;;18.50;70.70;;;;;;5088438;28;20035;-66
2021/06/02 03:19:45;;;;;;;5.25;2.88;;;18.50;70.60;;;;;;5082083;28;20037;-66
2021/06/02 03:22:29;;;;;;;6.72;3.10;;;18.50;70.60;;;;;;5075040;28;20028;-65
2021/06/02 03:25:15;;;;;;;6.25;3.22;;;18.50;70.60;;;;;;5074594;28;20111;-65
2021/06/02 03:28:02;;;;;;;6.57;2.90;;;18.50;70.60;;;;;;5089997;28;20108;-66
2021/06/02 03:30:36;;;;;;;5.38;3.00;;;18.50;70.60;;;;;;5095091;28;20029;-66
2021/06/02 03:33:27;;;;;;;5.45;2.70;;;18.50;70.50;;;;;;5093402;28;20031;-65
2021/06/02 03:36:10;;;;;;;5.95;2.85;;;18.50;70.50;;;;;;5065336;28;20486;-66
2021/06/02 03:39:11;;;;;;;6.90;2.63;;;18.50;70.70;;;;;;5081072;28;20035;-66
2021/06/02 03:41:55;;;;;;;5.82;2.88;;;18.50;70.60;;;;;;5074370;28;20032;-65
2021/06/02 03:44:42;;;;;;;5.55;3.25;;;18.50;70.40;;;;;;5074032;28;20028;-67
2021/06/02 03:47:22;;;;;;;5.82;3.20;;;18.50;70.20;;;;;;5074334;28;20112;-66
2021/06/02 03:50:13;;;;;;;5.25;2.97;;;18.50;70.10;;;;;;5074580;28;20119;-66
2021/06/02 03:53:02;;;;;;;5.40;3.00;;;18.50;70.40;;;;;;5074311;28;20036;-65
2021/06/02 03:55:46;;;;;;;5.60;3.00;;;18.50;70.20;;;;;;5084471;28;20581;-66
2021/06/02 03:58:42;;;;;;;6.10;3.15;;;18.50;70.20;;;;;;5091223;28;20024;-66
2021/06/02 04:01:12;;;;;;;6.07;3.20;;;18.50;70.00;;;;;;5075199;28;20032;-67
2021/06/02 04:04:03;;;;;;;5.50;2.80;;;18.60;69.90;;;;;;5074326;28;20032;-68
2021/06/02 04:07:12;;;;;;;9.32;4.45;;;18.60;69.80;;;;;;5079131;28;20036;-66
2021/06/02 04:09:42;;;;;;;8.13;4.10;;;18.60;70.00;;;;;;5081510;28;20099;-66
2021/06/02 04:12:35;;;;;;;9.73;4.53;;;18.60;69.90;;;;;;5086781;28;20016;-66
2021/06/02 04:15:05;;;;;;;8.48;3.72;;;18.60;70.10;;;;;;5067062;28;20028;-67
2021/06/02 04:17:32;;;;;;;8.07;4.07;;;18.60;70.00;;;;;;5076882;28;20029;-67
2021/06/02 04:20:04;;;;;;;7.30;3.75;;;18.60;69.90;;;;;;5080435;28;20839;-66
2021/06/02 04:22:32;;;;;;;7.30;3.38;;;18.60;70.00;;;;;;5086622;28;20032;-66
2021/06/02 04:25:03;;;;;;;7.25;3.88;;;18.60;69.90;;;;;;5081573;28;20020;-66
2021/06/02 04:27:33;;;;;;;7.80;3.35;;;18.60;69.90;;;;;;5068464;28;20052;-66
2021/06/02 04:30:03;;;;;;;7.55;3.92;;;18.70;69.20;;;;;;5065856;28;20043;-66
2021/06/02 04:32:38;;;;;;;9.00;4.47;;;18.70;68.40;;;;;;5078774;28;20040;-65
2021/06/02 04:35:07;;;;;;;10.07;4.55;;;18.70;69.00;;;;;;5090162;28;20062;-65
2021/06/02 04:37:35;;;;;;;8.75;3.83;;;18.80;68.10;;;;;;5086468;28;20034;-66
2021/06/02 04:40:06;;;;;;;7.38;4.40;;;18.80;68.20;;;;;;5086867;28;20089;-65
2021/06/02 04:42:36;;;;;;;9.40;4.18;;;18.70;68.00;;;;;;5080187;28;20043;-64
2021/06/02 04:45:04;;;;;;;10.40;4.20;;;18.70;68.70;;;;;;5083754;28;20024;-65
2021/06/02 04:47:32;;;;;;;11.00;4.00;;;18.80;68.50;;;;;;5085070;28;20020;-65
2021/06/02 04:50:13;;;;;;;10.05;4.55;;;18.80;68.80;;;;;;5086292;28;20024;-67
2021/06/02 04:52:42;;;;;;;;;;;18.80;68.70;;;;;;5072667;28;20100;-65
2021/06/02 04:55:32;;;;;;;7.68;3.63;;;18.80;68.60;;;;;;5079425;28;19916;-65
2021/06/02 04:58:35;;;;;;;8.50;3.88;;;18.90;69.30;;;;;;5091199;28;20042;-65
2021/06/02 05:01:20;;;;;;;10.85;3.97;;;18.90;69.70;;;;;;5095058;28;20110;-67
2021/06/02 05:04:14;;;;;;;13.98;4.15;;;19.00;70.10;;;;;;5065900;28;20089;-66
2021/06/02 05:06:48;;;;;;;8.20;4.40;;;19.10;69.80;;;;;;5067483;28;20071;-66
2021/06/02 05:09:34;;;;;;;10.43;4.18;;;19.10;68.90;;;;;;5082745;28;20058;-66
2021/06/02 05:12:14;;;;;;;10.32;4.00;;;19.10;68.70;;;;;;5081448;28;20036;-65
2021/06/02 05:15:23;;;;;;;11.13;4.88;;;19.10;68.50;;;;;;5089552;28;20281;-66
2021/06/02 05:18:07;;;;;;;7.05;3.58;;;19.10;68.60;;;;;;5095959;28;20112;-66
2021/06/02 05:22:04;;;;;;;7.38;3.47;;;19.10;68.30;;;;;;5089290;28;20055;-65
2021/06/02 05:24:07;;;;;;;7.20;4.00;;;19.20;68.00;;;;;;5072379;28;20043;-66
2021/06/02 05:26:59;;;;;;;7.95;3.90;;;19.20;67.40;;;;;;5066738;28;20107;-65
2021/06/02 05:29:49;;;;;;;9.43;4.30;;;19.30;67.10;;;;;;5066749;28;20107;-65
2021/06/02 05:32:33;;;;;;;8.47;4.30;;;19.30;67.40;;;;;;5066823;28;20485;-67
2021/06/02 05:35:14;;;;;;;9.50;4.43;;;19.30;67.50;;;;;;5090595;28;20118;-66
2021/06/02 05:38:07;;;;;;;7.65;4.47;;;19.30;67.50;;;;;;5089054;28;20024;-66
2021/06/02 05:41:00;;;;;;;8.52;4.68;;;19.40;67.40;;;;;;5083882;28;20028;-66
2021/06/02 05:43:28;;;;;;;9.43;4.93;;;19.40;67.20;;;;;;5084681;28;20028;-66
2021/06/02 05:46:16;;;;;;;8.40;4.60;;;19.40;67.20;;;;;;5084721;28;20027;-65
2021/06/02 05:49:17;;;;;;;9.25;4.45;;;19.40;66.50;;;;;;5084358;28;20024;-66
2021/06/02 05:51:59;;;;;;;9.50;4.22;;;19.40;66.50;;;;;;5084502;28;20030;-66
2021/06/02 05:54:57;;;;;;;10.80;4.47;;;19.40;66.60;;;;;;5084167;28;20462;-65
2021/06/02 05:57:47;;;;;;;8.43;3.90;;;19.40;66.60;;;;;;5084457;28;20078;-65
2021/06/02 06:00:22;;;;;;;9.40;4.30;;;19.50;67.00;;;;;;5084092;28;20028;-66
2021/06/02 06:03:12;;;;;;;7.68;3.90;;;19.50;66.80;;;;;;5084164;28;20408;-66
2021/06/02 06:06:11;;;;;;;9.45;3.88;;;19.50;66.50;;;;;;5084368;28;20028;-65
2021/06/02 06:08:52;;;;;;;8.52;3.55;;;19.40;66.60;;;;;;5084421;28;20032;-66
2021/06/02 06:11:45;;;;;;;7.20;3.92;;;19.50;66.50;;;;;;5084066;28;20020;-64
2021/06/02 06:14:26;;;;;;;7.38;3.63;;;19.50;66.40;;;;;;5083940;28;20039;-66
2021/06/02 06:17:05;;;;;;;7.85;3.83;;;19.50;66.20;;;;;;5084017;28;20020;-65
2021/06/02 06:19:48;;;;;;;7.93;3.60;;;19.50;66.00;;;;;;5083904;28;20032;-66
2021/06/02 06:22:32;;;;;;;7.13;3.92;;;19.60;65.90;;;;;;5084265;28;20024;-66
2021/06/02 06:25:10;;;;;;;6.57;3.40;;;19.70;65.20;;;;;;5083709;28;20028;-66
2021/06/02 06:28:01;;;;;;;8.43;3.85;;;19.70;65.40;;;;;;5083876;28;20020;-66
2021/06/02 06:30:30;;;;;;;7.78;3.65;;;19.80;65.10;;;;;;5083949;28;20032;-65
2021/06/02 06:32:57;;;;;;;7.18;3.63;;;19.80;65.10;;;;;;5083950;28;20085;-65
2021/06/02 06:35:25;;;;;;;7.70;3.75;;;19.70;65.00;;;;;;5083872;28;20032;-67
2021/06/02 06:37:53;;;;;;;9.55;4.25;;;19.90;65.10;;;;;;5083951;28;20036;-65
2021/06/02 06:40:24;;;;;;;7.57;3.70;;;19.90;64.80;;;;;;5083949;28;20024;-65
2021/06/02 06:42:53;;;;;;;6.53;3.50;;;20.00;64.50;;;;;;5083796;28;20020;-66
2021/06/02 06:45:29;;;;;;;8.20;3.85;;;20.10;63.90;;;;;;5083364;28;20203;-65
2021/06/02 06:47:55;;;;;;;8.48;3.80;;;20.20;63.80;;;;;;5083874;28;20028;-65
2021/06/02 06:50:21;;;;;;;7.65;3.90;;;20.30;63.50;;;;;;5083807;28;20032;-66
2021/06/02 06:52:50;;;;;;;7.20;3.83;;;20.40;63.00;;;;;;5086733;28;20031;-66
2021/06/02 06:55:16;;;;;;;8.07;4.25;;;20.50;62.80;;;;;;5087829;28;20032;-66
2021/06/02 06:57:44;;;;;;;8.07;3.90;;;20.50;62.50;;;;;;5087919;28;20329;-66
2021/06/02 07:00:12;;;;;;;8.15;3.90;;;20.60;62.40;;;;;;5087884;28;20020;-65
2021/06/02 07:02:39;;;;;;;8.82;3.63;;;20.60;62.30;;;;;;5087871;28;20028;-66
2021/06/02 07:05:06;;;;;;;7.78;3.83;;;20.60;62.30;;;;;;5087367;28;20024;-67
2021/06/02 07:07:35;;;;;;;5.93;3.40;;;20.70;62.10;;;;;;5087391;28;20031;-66
2021/06/02 07:10:02;;;;;;;8.80;4.05;;;20.70;61.60;;;;;;5087620;28;20028;-66
2021/06/02 07:12:30;;;;;;;7.93;4.43;;;20.80;61.50;;;;;;5086865;28;20055;-65
2021/06/02 07:14:56;;;;;;;6.93;4.00;;;20.80;61.80;;;;;;5087277;28;20057;-66
2021/06/02 07:17:23;;;;;;;8.40;3.78;;;20.60;62.20;;;;;;5087009;28;20133;-66
2021/06/02 07:19:59;;;;;;;8.07;3.60;;;20.50;62.50;;;;;;5087646;28;20054;-66
2021/06/02 07:22:26;;;;;;;7.13;3.70;;;20.60;63.00;;;;;;5087486;28;20032;-66
2021/06/02 07:24:54;;;;;;;9.48;3.88;;;20.70;61.80;;;;;;5087103;28;20031;-67
2021/06/02 07:27:19;;;;;;;7.13;3.47;;;20.80;61.60;;;;;;5087231;28;20554;-65
2021/06/02 07:29:45;;;;;;;7.82;3.60;;;21.00;60.60;;;;;;5086933;28;20036;-66
2021/06/02 07:32:10;;;;;;;6.85;3.30;;;21.10;60.10;;;;;;5087307;28;20115;-66
2021/06/02 07:34:36;;;;;;;7.97;3.90;;;21.10;59.90;;;;;;5086685;28;20510;-65
2021/06/02 07:37:02;;;;;;;6.88;3.50;;;21.20;59.80;;;;;;5087115;28;20122;-66
2021/06/02 07:39:27;;;;;;;7.20;3.80;;;21.20;59.80;;;;;;5086830;28;20032;-66
2021/06/02 07:41:53;;;;;;;7.70;3.67;;;21.30;59.50;;;;;;5087283;28;20020;-65
2021/06/02 07:44:19;;;;;;;7.28;3.75;;;21.40;58.90;;;;;;5086678;28;20314;-65
2021/06/02 07:46:44;;;;;;;6.88;3.50;;;21.50;58.80;;;;;;5086846;28;20389;-66
2021/06/02 07:49:10;;;;;;;8.02;3.78;;;21.50;58.60;;;;;;5086637;28;20036;-65
2021/06/02 07:51:37;;;;;;;6.88;3.60;;;21.60;58.40;;;;;;5086717;28;20039;-66
2021/06/02 07:54:04;;;;;;;9.35;3.50;;;21.60;58.10;;;;;;5086348;28;20032;-66
2021/06/02 07:56:30;;;;;;;8.05;3.67;;;21.70;58.10;;;;;;5086638;28;20059;-65
2021/06/02 07:58:55;;;;;;;6.25;3.45;;;21.80;57.60;;;;;;5086298;28;20020;-67
2021/06/02 08:01:21;;;;;;;7.28;3.90;;;21.70;57.80;;;;;;5086516;28;20104;-66
2021/06/02 08:03:46;;;;;;;7.88;3.40;;;21.60;58.00;;;;;;5085312;28;20078;-65
2021/06/02 08:06:12;;;;;;;7.43;3.63;;;21.60;57.80;;;;;;5086342;28;20489;-66
2021/06/02 08:08:37;;;;;;;8.27;3.35;;;21.50;58.30;;;;;;5086588;28;20024;-66
2021/06/02 08:11:03;;;;;;;6.90;3.35;;;21.50;58.50;;;;;;5086048;28;20028;-66
2021/06/02 08:13:29;;;;;;;6.95;3.55;;;21.50;58.20;;;;;;5086477;28;20048;-66
2021/06/02 08:15:54;;;;;;;7.90;3.58;;;21.80;57.70;;;;;;5086100;28;20032;-66
2021/06/02 08:18:20;;;;;;;6.57;3.50;;;21.90;57.10;;;;;;5086220;28;20028;-65
2021/06/02 08:20:46;;;;;;;6.78;3.30;;;22.00;57.00;;;;;;5086333;28;20028;-65
2021/06/02 08:23:11;;;;;;;6.22;3.22;;;21.90;57.20;;;;;;5086312;28;20017;-66
2021/06/02 08:25:37;;;;;;;7.30;3.22;;;21.80;57.50;;;;;;5085856;28;20497;-65
2021/06/02 08:28:03;;;;;;;7.43;3.45;;;21.80;57.60;;;;;;5086089;28;20020;-67
2021/06/02 08:30:28;;;;;;;6.05;3.15;;;22.00;57.10;;;;;;5085890;28;20485;-67
2021/06/02 08:32:54;;;;;;;6.95;3.60;;;22.10;56.50;;;;;;5086216;28;20039;-65
2021/06/02 08:35:21;;;;;;;7.22;3.47;;;22.30;56.00;;;;;;5085487;28;20389;-66
2021/06/02 08:37:47;;;;;;;6.57;3.17;;;22.10;56.40;;;;;;5085811;28;20034;-66
2021/06/02 08:40:14;;;;;;;7.15;3.42;;;22.00;56.60;;;;;;5085326;28;20060;-66
2021/06/02 08:42:44;;;;;;;6.93;3.20;;;21.90;57.10;;;;;;5085786;28;20054;-67
2021/06/02 08:45:13;;;;;;;6.28;3.20;;;21.90;57.50;;;;;;5085640;28;20016;-65
2021/06/02 08:47:41;;;;;;;6.57;2.95;;;21.80;57.60;;;;;;5085388;28;20024;-65
2021/06/02 08:50:08;;;;;;;6.80;3.67;;;21.60;57.90;;;;;;5085342;28;20028;-65
2021/06/02 08:52:36;;;;;;;5.47;3.08;;;21.60;57.90;;;;;;5085645;28;20035;-65
2021/06/02 08:55:13;;;;;;;5.63;3.10;;;22.00;57.10;;;;;;5085139;28;20028;-66
2021/06/02 08:57:41;;;;;;;5.70;3.20;;;22.20;56.10;;;;;;5085241;28;20028;-67
2021/06/02 09:00:12;;;;;;;6.32;2.90;;;22.40;56.00;;;;;;5085520;28;20032;-66
2021/06/02 09:02:44;;;;;;;6.95;3.20;;;22.50;55.30;;;;;;5085249;28;20020;-66
2021/06/02 09:05:10;;;;;;;6.18;3.13;;;22.60;55.10;;;;;;5084782;28;20066;-66
2021/06/02 09:07:37;;;;;;;6.60;3.33;;;22.70;54.70;;;;;;5085103;28;20032;-65
2021/06/02 09:10:06;;;;;;;5.82;3.10;;;22.70;54.60;;;;;;5085287;28;20032;-66
2021/06/02 09:12:40;;;;;;;5.95;3.05;;;22.80;54.60;;;;;;5084576;28;20035;-67
2021/06/02 09:15:19;;;;;;;5.28;2.85;;;22.90;54.40;;;;;;5084797;28;20028;-65
2021/06/02 09:17:53;;;;;;;7.70;3.35;;;23.00;54.10;;;;;;5077689;28;20024;-65
2021/06/02 09:20:38;;;;;;;5.35;2.88;;;23.00;54.20;;;;;;5075812;28;20044;-67
2021/06/02 09:23:36;;;;;;;6.68;3.30;;;23.00;53.90;;;;;;5098090;28;20947;-65
2021/06/02 09:26:11;;;;;;;7.22;3.10;;;23.20;53.90;;;;;;5094544;28;20553;-65
2021/06/02 09:28:47;;;;;;;6.47;3.20;;;23.30;53.50;;;;;;5090990;28;20030;-66
2021/06/02 09:31:26;;;;;;;6.68;3.03;;;23.30;53.40;;;;;;5084916;28;20016;-65
2021/06/02 09:34:00;;;;;;;5.90;3.10;;;23.30;53.20;;;;;;5092397;28;20035;-66
2021/06/02 09:36:28;;;;;;;7.22;3.22;;;23.30;53.10;;;;;;5095322;27;20012;-66
2021/06/02 09:38:58;;;;;;;5.57;3.10;;;23.40;53.10;;;;;;5090393;28;20027;-66
2021/06/02 09:41:24;;;;;;;6.40;3.25;;;23.50;53.30;;;;;;5083739;28;20028;-66
2021/06/02 09:43:50;;;;;;;6.53;3.28;;;23.50;52.90;;;;;;5082711;28;20024;-66
2021/06/02 09:46:16;;;;;;;6.22;3.40;;;23.60;52.70;;;;;;5084268;28;20031;-66
2021/06/02 09:49:00;;;;;;;5.90;3.15;;;23.70;52.90;;;;;;5084329;28;20024;-67
2021/06/02 09:51:32;;;;;;;6.40;2.95;;;23.80;52.40;;;;;;5084565;28;20035;-66
2021/06/02 09:53:59;;;;;;;6.53;3.28;;;23.90;52.10;;;;;;5084203;28;20089;-66
2021/06/02 09:56:32;;;;;;;6.70;3.30;;;23.80;52.10;;;;;;5084524;28;20130;-66
2021/06/02 09:58:57;;;;;;;6.50;3.38;;;23.80;51.90;;;;;;5084355;28;20055;-65
2021/06/02 10:01:23;;;;;;;5.50;3.10;;;23.90;51.80;;;;;;5084141;28;20078;-66
2021/06/02 10:03:49;;;;;;;7.00;3.28;;;24.00;51.80;;;;;;5084084;28;20024;-66
2021/06/02 10:06:15;;;;;;;6.32;3.20;;;24.00;51.80;;;;;;5084366;28;20491;-67
2021/06/02 10:08:41;;;;;;;6.57;3.13;;;23.80;51.60;;;;;;5084207;28;20036;-66
2021/06/02 10:11:19;;;;;;;5.90;3.20;;;24.00;51.40;;;;;;5083980;28;20072;-66
2021/06/02 10:13:50;;;;;;;5.82;3.10;;;24.10;51.40;;;;;;5083841;28;20073;-66
2021/06/02 10:16:45;;;;;;;5.55;3.10;;;24.10;51.20;;;;;;5084205;28;20028;-66
2021/06/02 10:19:10;;;;;;;6.47;3.38;;;24.20;51.10;;;;;;5083754;28;20043;-66
2021/06/02 10:21:43;;;;;;;6.40;3.08;;;24.30;50.90;;;;;;5084030;28;20032;-66
2021/06/02 10:24:09;;;;;;;6.28;3.10;;;24.40;50.70;;;;;;5083505;28;20400;-67
2021/06/02 10:26:38;;;;;;;5.85;3.28;;;24.30;50.80;;;;;;5083653;28;20115;-65
2021/06/02 10:29:03;;;;;;;6.35;3.40;;;24.20;50.90;;;;;;5083859;28;20036;-66
2021/06/02 10:31:29;;;;;;;6.18;3.40;;;24.30;51.10;;;;;;5084082;28;20156;-66
2021/06/02 10:33:55;;;;;;;6.82;3.30;;;24.40;50.90;;;;;;5083406;28;20028;-66
2021/06/02 10:36:21;;;;;;;6.35;3.40;;;24.50;50.60;;;;;;5083978;28;20071;-66
2021/06/02 10:38:53;;;;;;;7.05;3.35;;;24.50;50.50;;;;;;5083648;28;20298;-66
2021/06/02 10:41:21;;;;;;;;;;;24.60;50.20;;;;;;5084396;28;20529;-67
2021/06/02 10:43:50;;;;;;;6.90;3.30;;;24.60;49.90;;;;;;5083546;28;19912;-67
2021/06/02 10:46:21;;;;;;;5.60;3.15;;;24.60;50.00;;;;;;5083846;28;20024;-66
2021/06/02 10:48:55;;;;;;;5.95;3.42;;;24.70;49.90;;;;;;5083843;28;20558;-67
2021/06/02 10:51:30;;;;;;;6.00;3.50;;;24.60;49.90;;;;;;5083593;28;20050;-66
2021/06/02 10:54:29;;;;;;;5.63;3.20;;;24.70;49.80;;;;;;5083536;28;20025;-66
2021/06/02 10:56:57;;;;;;;7.53;3.67;;;24.70;49.70;;;;;;5083534;28;20032;-66
2021/06/02 10:59:37;;;;;;;5.75;3.30;;;24.70;49.70;;;;;;5083794;28;20028;-67
2021/06/02 11:02:10;;;;;;;6.00;3.53;;;24.70;49.80;;;;;;5083594;28;20039;-66
2021/06/02 11:04:59;;;;;;;6.35;3.70;;;24.70;49.80;;;;;;5083662;28;20021;-66
2021/06/02 11:07:26;;;;;;;6.95;3.80;;;24.70;49.80;;;;;;5076509;28;20036;-66
2021/06/02 11:09:58;;;;;;;6.82;3.17;;;24.70;49.80;;;;;;5083304;28;20028;-66
2021/06/02 11:12:25;;;;;;;6.25;3.50;;;24.70;49.80;;;;;;5081260;28;20028;-64
2021/06/02 11:14:53;;;;;;;6.28;3.55;;;24.70;49.60;;;;;;5085931;28;20443;-65
2021/06/02 11:17:20;;;;;;;7.88;2.97;;;24.80;49.60;;;;;;5085044;28;20062;-66
2021/06/02 11:19:54;;;;;;;6.47;3.67;;;24.80;49.50;;;;;;5098165;28;20035;-65
2021/06/02 11:22:25;;;;;;;5.43;3.15;;;24.60;49.50;;;;;;5101240;28;20031;-66
2021/06/02 11:24:53;;;;;;;6.15;3.38;;;24.80;49.80;;;;;;5096979;28;20019;-66
2021/06/02 11:27:18;;;;;;;5.72;3.33;;;24.70;49.80;;;;;;5094287;28;20715;-65
2021/06/02 11:29:50;;;;;;;6.30;3.58;;;24.70;49.90;;;;;;5092828;28;20134;-65
2021/06/02 11:32:15;;;;;;;7.82;3.72;;;24.30;51.00;;;;;;5087656;28;20107;-65
2021/06/02 11:34:43;;;;;;;6.75;3.28;;;24.00;52.10;;;;;;5096317;28;20111;-65
2021/06/02 11:37:11;;;;;;;7.72;3.33;;;23.90;52.30;;;;;;5092507;28;20032;-66
2021/06/02 11:39:38;;;;;;;8.23;3.83;;;23.80;52.90;;;;;;5099665;28;20056;-65
2021/06/02 11:42:05;;;;;;;7.05;3.30;;;23.40;54.20;;;;;;5094635;28;20282;-65
2021/06/02 11:44:31;;;;;;;6.20;3.55;;;23.10;55.00;;;;;;5097673;28;20446;-66
2021/06/02 11:46:57;;;;;;;8.07;4.07;;;22.90;55.90;;;;;;5096435;28;20545;-65
2021/06/02 11:49:27;;;;;;;6.88;3.22;;;22.70;56.20;;;;;;5094751;28;20055;-65
2021/06/02 11:51:55;;;;;;;6.43;3.42;;;22.60;56.50;;;;;;5095459;28;20394;-65
2021/06/02 11:54:21;;;;;;;5.90;3.17;;;22.60;56.70;;;;;;5096799;28;20055;-66
2021/06/02 11:56:47;;;;;;;6.93;3.28;;;22.50;57.20;;;;;;5086305;28;20084;-66
2021/06/02 11:59:12;;;;;;;8.40;3.80;;;22.40;57.30;;;;;;5078979;28;20114;-67
2021/06/02 12:01:38;;;;;;;7.15;3.50;;;22.30;57.60;;;;;;5087359;28;20041;-67
2021/06/02 12:04:04;;;;;;;7.28;3.58;;;22.40;57.60;;;;;;5085915;28;20359;-66
2021/06/02 12:06:36;;;;;;;6.40;3.30;;;22.40;57.40;;;;;;5087386;28;20032;-66
2021/06/02 12:09:11;;;;;;;9.27;3.80;;;22.40;57.30;;;;;;5088101;28;20051;-67
2021/06/02 12:11:37;;;;;;;8.05;3.72;;;22.40;57.50;;;;;;5087739;28;20032;-66
2021/06/02 12:14:03;;;;;;;5.95;3.42;;;22.40;57.60;;;;;;5087684;28;20016;-66
2021/06/02 12:16:29;;;;;;;8.93;3.90;;;22.30;57.60;;;;;;5086249;28;20543;-65
2021/06/02 12:18:59;;;;;;;7.22;3.33;;;22.30;57.70;;;;;;5087616;28;20070;-66
2021/06/02 12:21:27;;;;;;;7.90;3.40;;;22.30;57.90;;;;;;5087828;28;20293;-66
2021/06/02 12:23:58;;;;;;;8.40;3.47;;;22.20;57.90;;;;;;5087749;28;20023;-67
2021/06/02 12:26:28;;;;;;;;;;;22.20;58.20;;;;;;5087821;28;20027;-66
2021/06/02 12:28:56;;;;;;;6.88;3.20;;;22.10;58.40;;;;;;5087630;28;19904;-66
2021/06/02 12:31:27;;;;;;;6.70;3.47;;;22.00;58.50;;;;;;5087499;28;20119;-66
2021/06/02 12:34:01;;;;;;;5.60;3.38;;;22.00;58.70;;;;;;5087148;28;20103;-67
2021/06/02 12:36:27;;;;;;;6.82;3.55;;;22.00;58.90;;;;;;5087212;28;20031;-66
2021/06/02 12:38:53;;;;;;;8.27;3.13;;;22.00;58.90;;;;;;5078907;28;20020;-67
2021/06/02 12:41:24;;;;;;;7.72;3.58;;;22.10;59.20;;;;;;5085488;28;20072;-66
2021/06/02 12:43:50;;;;;;;6.75;3.13;;;22.10;59.10;;;;;;5079529;28;20020;-66
2021/06/02 12:46:16;;;;;;;5.78;3.20;;;22.10;59.10;;;;;;5087330;28;20032;-65
2021/06/02 12:48:44;;;;;;;5.90;3.28;;;22.00;59.00;;;;;;5089454;28;20562;-66
2021/06/02 12:51:18;;;;;;;7.70;3.10;;;22.00;58.80;;;;;;5094663;28;20028;-66
2021/06/02 12:53:46;;;;;;;6.07;3.13;;;22.20;58.30;;;;;;5086582;28;20598;-66
2021/06/02 12:56:13;;;;;;;6.38;3.40;;;22.30;58.40;;;;;;5086895;28;20405;-66
2021/06/02 12:58:39;;;;;;;7.50;3.60;;;22.20;58.50;;;;;;5087133;28;20216;-67
2021/06/02 13:01:06;;;;;;;7.35;3.30;;;22.20;58.90;;;;;;5084914;28;20040;-66
2021/06/02 13:03:33;;;;;;;5.55;3.10;;;22.10;58.70;;;;;;5086741;28;20409;-66
2021/06/02 13:05:59;;;;;;;6.35;3.10;;;22.10;58.70;;;;;;5086717;28;20073;-67
2021/06/02 13:08:25;;;;;;;6.13;2.92;;;22.10;58.40;;;;;;5086816;28;20024;-66
2021/06/02 13:10:51;;;;;;;5.95;3.13;;;22.10;58.70;;;;;;5084351;28;20020;-66
2021/06/02 13:13:17;;;;;;;6.88;3.13;;;22.10;58.70;;;;;;5086571;28;20069;-66
2021/06/02 13:15:45;;;;;;;5.53;3.30;;;22.10;58.30;;;;;;5081493;28;20024;-67
2021/06/02 13:18:28;;;;;;;6.07;3.20;;;22.10;59.10;;;;;;5080011;28;20382;-67
2021/06/02 13:20:55;;;;;;;6.30;3.20;;;22.00;58.80;;;;;;5085242;28;20423;-67
2021/06/02 13:23:22;;;;;;;5.70;3.38;;;22.00;59.10;;;;;;5085027;28;20076;-65